sensor_id;sensor_type;location;lat;lon;timestamp;P1;durP1;ratioP1;P2;durP2;ratioP2
583;SDS011;27024;54.068;12.116;2022-09-30T00:00:56;3.97;;;2.65;;
583;SDS011;27024;54.068;12.116;2022-09-30T00:03:23;4.22;;;2.42;;
583;SDS011;27024;54.068;12.116;2022-09-30T00:05:59;4.30;;;2.53;;
583;SDS011;27024;54.068;12.116;2022-09-30T00:08:34;3.30;;;2.10;;
583;SDS011;27024;54.068;12.116;2022-09-30T00:13:34;5.22;;;2.53;;
583;SDS011;27024;54.068;12.116;2022-09-30T00:16:03;3.75;;;2.40;;
583;SDS011;27024;54.068;12.116;2022-09-30T00:18:30;3.90;;;2.50;;
583;SDS011;27024;54.068;12.116;2022-09-30T00:20:58;3.92;;;2.40;;
583;SDS011;27024;54.068;12.116;2022-09-30T00:23:25;3.83;;;2.40;;
583;SDS011;27024;54.068;12.116;2022-09-30T00:25:59;4.50;;;2.83;;
583;SDS011;27024;54.068;12.116;2022-09-30T00:28:27;7.40;;;2.80;;
583;SDS011;27024;54.068;12.116;2022-09-30T00:31:01;5.20;;;2.38;;
583;SDS011;27024;54.068;12.116;2022-09-30T00:33:30;3.83;;;2.33;;
583;SDS011;27024;54.068;12.116;2022-09-30T00:35:58;4.80;;;2.90;;
583;SDS011;27024;54.068;12.116;2022-09-30T00:38:25;4.78;;;2.45;;
583;SDS011;27024;54.068;12.116;2022-09-30T00:40:52;4.10;;;2.50;;
583;SDS011;27024;54.068;12.116;2022-09-30T00:43:20;3.83;;;2.38;;
583;SDS011;27024;54.068;12.116;2022-09-30T00:46:18;3.75;;;2.25;;
583;SDS011;27024;54.068;12.116;2022-09-30T00:49:15;4.60;;;2.60;;
583;SDS011;27024;54.068;12.116;2022-09-30T00:51:50;5.50;;;2.53;;
583;SDS011;27024;54.068;12.116;2022-09-30T00:54:22;4.68;;;2.90;;
583;SDS011;27024;54.068;12.116;2022-09-30T00:56:55;5.50;;;2.75;;
583;SDS011;27024;54.068;12.116;2022-09-30T00:59:33;5.38;;;2.83;;
583;SDS011;27024;54.068;12.116;2022-09-30T01:02:08;4.50;;;2.70;;
583;SDS011;27024;54.068;12.116;2022-09-30T01:04:38;9.63;;;2.85;;
583;SDS011;27024;54.068;12.116;2022-09-30T01:07:07;3.97;;;2.75;;
583;SDS011;27024;54.068;12.116;2022-09-30T01:09:36;4.88;;;2.42;;
583;SDS011;27024;54.068;12.116;2022-09-30T01:12:15;4.72;;;2.53;;
583;SDS011;27024;54.068;12.116;2022-09-30T01:14:47;5.00;;;2.67;;
583;SDS011;27024;54.068;12.116;2022-09-30T01:19:57;5.82;;;2.85;;
583;SDS011;27024;54.068;12.116;2022-09-30T01:31:16;4.97;;;2.50;;
583;SDS011;27024;54.068;12.116;2022-09-30T01:34:06;4.32;;;2.60;;
583;SDS011;27024;54.068;12.116;2022-09-30T01:47:25;5.43;;;2.97;;
583;SDS011;27024;54.068;12.116;2022-09-30T01:50:09;6.28;;;2.88;;
583;SDS011;27024;54.068;12.116;2022-09-30T01:55:20;4.60;;;3.15;;
583;SDS011;27024;54.068;12.116;2022-09-30T01:58:04;4.57;;;2.78;;
583;SDS011;27024;54.068;12.116;2022-09-30T02:00:38;4.22;;;2.50;;
583;SDS011;27024;54.068;12.116;2022-09-30T02:03:09;5.18;;;2.88;;
583;SDS011;27024;54.068;12.116;2022-09-30T02:10:57;5.03;;;2.85;;
583;SDS011;27024;54.068;12.116;2022-09-30T02:13:31;5.25;;;3.28;;
583;SDS011;27024;54.068;12.116;2022-09-30T02:16:21;5.47;;;3.40;;
583;SDS011;27024;54.068;12.116;2022-09-30T02:18:53;5.18;;;3.22;;
583;SDS011;27024;54.068;12.116;2022-09-30T02:21:25;6.32;;;3.63;;
583;SDS011;27024;54.068;12.116;2022-09-30T02:23:58;6.57;;;3.60;;
583;SDS011;27024;54.068;12.116;2022-09-30T02:26:32;5.30;;;3.50;;
583;SDS011;27024;54.068;12.116;2022-09-30T02:29:04;5.47;;;3.85;;
583;SDS011;27024;54.068;12.116;2022-09-30T02:31:36;5.30;;;4.03;;
583;SDS011;27024;54.068;12.116;2022-09-30T02:36:46;6.03;;;3.30;;
583;SDS011;27024;54.068;12.116;2022-09-30T02:39:21;5.57;;;3.60;;
583;SDS011;27024;54.068;12.116;2022-09-30T02:41:56;6.82;;;4.30;;
583;SDS011;27024;54.068;12.116;2022-09-30T02:44:28;6.40;;;3.83;;
583;SDS011;27024;54.068;12.116;2022-09-30T02:49:44;6.55;;;3.75;;
583;SDS011;27024;54.068;12.116;2022-09-30T02:55:02;6.43;;;3.80;;
583;SDS011;27024;54.068;12.116;2022-09-30T02:57:35;5.80;;;3.95;;
583;SDS011;27024;54.068;12.116;2022-09-30T03:00:07;6.38;;;3.53;;
583;SDS011;27024;54.068;12.116;2022-09-30T03:02:39;6.82;;;3.80;;
583;SDS011;27024;54.068;12.116;2022-09-30T03:05:07;6.40;;;3.97;;
583;SDS011;27024;54.068;12.116;2022-09-30T03:07:35;6.50;;;3.67;;
583;SDS011;27024;54.068;12.116;2022-09-30T03:10:12;4.93;;;3.10;;
583;SDS011;27024;54.068;12.116;2022-09-30T03:15:22;5.50;;;3.95;;
583;SDS011;27024;54.068;12.116;2022-09-30T03:20:45;6.18;;;3.80;;
583;SDS011;27024;54.068;12.116;2022-09-30T03:23:22;5.78;;;3.67;;
583;SDS011;27024;54.068;12.116;2022-09-30T03:25:59;6.00;;;3.63;;
583;SDS011;27024;54.068;12.116;2022-09-30T03:28:41;6.57;;;3.67;;
583;SDS011;27024;54.068;12.116;2022-09-30T03:31:27;4.95;;;3.53;;
583;SDS011;27024;54.068;12.116;2022-09-30T03:36:56;5.07;;;3.53;;
583;SDS011;27024;54.068;12.116;2022-09-30T03:40:04;6.20;;;4.38;;
583;SDS011;27024;54.068;12.116;2022-09-30T03:42:42;8.40;;;3.95;;
583;SDS011;27024;54.068;12.116;2022-09-30T03:45:33;7.55;;;3.90;;
583;SDS011;27024;54.068;12.116;2022-09-30T03:48:05;5.43;;;3.75;;
583;SDS011;27024;54.068;12.116;2022-09-30T03:50:34;6.07;;;3.83;;
583;SDS011;27024;54.068;12.116;2022-09-30T03:53:03;6.00;;;3.97;;
583;SDS011;27024;54.068;12.116;2022-09-30T03:55:42;5.70;;;3.88;;
583;SDS011;27024;54.068;12.116;2022-09-30T03:58:13;5.90;;;3.88;;
583;SDS011;27024;54.068;12.116;2022-09-30T04:00:44;6.15;;;4.00;;
583;SDS011;27024;54.068;12.116;2022-09-30T04:03:14;6.32;;;3.95;;
583;SDS011;27024;54.068;12.116;2022-09-30T04:05:42;5.78;;;4.13;;
583;SDS011;27024;54.068;12.116;2022-09-30T04:08:09;6.43;;;3.97;;
583;SDS011;27024;54.068;12.116;2022-09-30T04:10:37;6.93;;;4.15;;
583;SDS011;27024;54.068;12.116;2022-09-30T04:13:05;6.55;;;4.40;;
583;SDS011;27024;54.068;12.116;2022-09-30T04:15:32;6.97;;;4.55;;
583;SDS011;27024;54.068;12.116;2022-09-30T04:17:59;6.85;;;4.22;;
583;SDS011;27024;54.068;12.116;2022-09-30T04:20:26;7.70;;;4.93;;
583;SDS011;27024;54.068;12.116;2022-09-30T04:22:53;7.78;;;4.75;;
583;SDS011;27024;54.068;12.116;2022-09-30T04:25:22;6.50;;;4.32;;
583;SDS011;27024;54.068;12.116;2022-09-30T04:27:49;6.75;;;4.43;;
583;SDS011;27024;54.068;12.116;2022-09-30T04:30:16;7.15;;;4.90;;
583;SDS011;27024;54.068;12.116;2022-09-30T04:32:49;8.73;;;5.20;;
583;SDS011;27024;54.068;12.116;2022-09-30T04:35:15;7.18;;;4.80;;
583;SDS011;27024;54.068;12.116;2022-09-30T04:37:42;7.53;;;4.95;;
583;SDS011;27024;54.068;12.116;2022-09-30T04:40:10;7.13;;;4.88;;
583;SDS011;27024;54.068;12.116;2022-09-30T04:42:39;7.40;;;4.60;;
583;SDS011;27024;54.068;12.116;2022-09-30T04:45:09;6.38;;;4.53;;
583;SDS011;27024;54.068;12.116;2022-09-30T04:47:36;8.13;;;4.75;;
583;SDS011;27024;54.068;12.116;2022-09-30T04:50:04;7.00;;;4.90;;
583;SDS011;27024;54.068;12.116;2022-09-30T04:52:31;7.28;;;4.78;;
583;SDS011;27024;54.068;12.116;2022-09-30T04:54:58;7.43;;;4.97;;
583;SDS011;27024;54.068;12.116;2022-09-30T04:57:24;10.85;;;5.40;;
583;SDS011;27024;54.068;12.116;2022-09-30T04:59:52;9.15;;;5.22;;
583;SDS011;27024;54.068;12.116;2022-09-30T05:02:19;7.07;;;5.32;;
583;SDS011;27024;54.068;12.116;2022-09-30T05:04:45;7.72;;;5.15;;
583;SDS011;27024;54.068;12.116;2022-09-30T05:07:12;8.68;;;5.40;;
583;SDS011;27024;54.068;12.116;2022-09-30T05:09:39;8.63;;;5.50;;
583;SDS011;27024;54.068;12.116;2022-09-30T05:12:06;9.98;;;4.90;;
583;SDS011;27024;54.068;12.116;2022-09-30T05:14:33;7.95;;;5.00;;
583;SDS011;27024;54.068;12.116;2022-09-30T05:17:00;8.57;;;4.75;;
583;SDS011;27024;54.068;12.116;2022-09-30T05:19:28;8.00;;;5.10;;
583;SDS011;27024;54.068;12.116;2022-09-30T05:21:55;8.23;;;6.07;;
583;SDS011;27024;54.068;12.116;2022-09-30T05:24:21;8.50;;;5.22;;
583;SDS011;27024;54.068;12.116;2022-09-30T05:26:49;9.85;;;5.03;;
583;SDS011;27024;54.068;12.116;2022-09-30T05:29:15;10.13;;;6.00;;
583;SDS011;27024;54.068;12.116;2022-09-30T05:31:42;8.80;;;5.68;;
583;SDS011;27024;54.068;12.116;2022-09-30T05:34:09;9.32;;;5.90;;
583;SDS011;27024;54.068;12.116;2022-09-30T05:36:36;11.10;;;5.15;;
583;SDS011;27024;54.068;12.116;2022-09-30T05:39:03;9.93;;;6.05;;
583;SDS011;27024;54.068;12.116;2022-09-30T05:41:30;9.88;;;5.70;;
583;SDS011;27024;54.068;12.116;2022-09-30T05:43:58;9.30;;;6.38;;
583;SDS011;27024;54.068;12.116;2022-09-30T05:46:26;10.50;;;5.95;;
583;SDS011;27024;54.068;12.116;2022-09-30T05:48:53;11.85;;;6.13;;
583;SDS011;27024;54.068;12.116;2022-09-30T05:51:21;12.07;;;7.10;;
583;SDS011;27024;54.068;12.116;2022-09-30T05:53:47;11.43;;;6.80;;
583;SDS011;27024;54.068;12.116;2022-09-30T05:56:14;10.77;;;6.78;;
583;SDS011;27024;54.068;12.116;2022-09-30T05:58:41;10.15;;;6.50;;
583;SDS011;27024;54.068;12.116;2022-09-30T06:01:09;11.15;;;6.72;;
583;SDS011;27024;54.068;12.116;2022-09-30T06:03:40;13.27;;;6.88;;
583;SDS011;27024;54.068;12.116;2022-09-30T06:06:08;11.73;;;7.10;;
583;SDS011;27024;54.068;12.116;2022-09-30T06:08:36;11.48;;;6.72;;
583;SDS011;27024;54.068;12.116;2022-09-30T06:11:07;10.23;;;6.85;;
583;SDS011;27024;54.068;12.116;2022-09-30T06:13:39;10.80;;;7.05;;
583;SDS011;27024;54.068;12.116;2022-09-30T06:16:07;12.68;;;7.93;;
583;SDS011;27024;54.068;12.116;2022-09-30T06:18:35;11.48;;;7.45;;
583;SDS011;27024;54.068;12.116;2022-09-30T06:21:04;12.10;;;7.70;;
583;SDS011;27024;54.068;12.116;2022-09-30T06:23:31;11.52;;;7.43;;
583;SDS011;27024;54.068;12.116;2022-09-30T06:26:00;11.98;;;7.97;;
583;SDS011;27024;54.068;12.116;2022-09-30T06:28:28;12.27;;;7.85;;
583;SDS011;27024;54.068;12.116;2022-09-30T06:30:55;13.80;;;7.63;;
583;SDS011;27024;54.068;12.116;2022-09-30T06:33:22;15.02;;;8.30;;
583;SDS011;27024;54.068;12.116;2022-09-30T06:35:49;13.23;;;8.63;;
583;SDS011;27024;54.068;12.116;2022-09-30T06:38:16;15.13;;;8.82;;
583;SDS011;27024;54.068;12.116;2022-09-30T06:40:43;12.43;;;8.70;;
583;SDS011;27024;54.068;12.116;2022-09-30T06:43:17;15.05;;;9.32;;
583;SDS011;27024;54.068;12.116;2022-09-30T06:45:45;15.25;;;9.23;;
583;SDS011;27024;54.068;12.116;2022-09-30T06:48:13;13.43;;;9.13;;
583;SDS011;27024;54.068;12.116;2022-09-30T06:50:49;14.05;;;9.30;;
583;SDS011;27024;54.068;12.116;2022-09-30T06:53:27;16.15;;;9.90;;
583;SDS011;27024;54.068;12.116;2022-09-30T06:55:55;19.63;;;9.18;;
583;SDS011;27024;54.068;12.116;2022-09-30T06:58:23;14.98;;;9.65;;
583;SDS011;27024;54.068;12.116;2022-09-30T07:01:00;15.18;;;8.75;;
583;SDS011;27024;54.068;12.116;2022-09-30T07:03:32;12.90;;;8.77;;
583;SDS011;27024;54.068;12.116;2022-09-30T07:06:02;14.73;;;9.48;;
583;SDS011;27024;54.068;12.116;2022-09-30T07:08:30;14.55;;;8.75;;
583;SDS011;27024;54.068;12.116;2022-09-30T07:11:04;14.95;;;9.00;;
583;SDS011;27024;54.068;12.116;2022-09-30T07:13:37;14.55;;;8.98;;
583;SDS011;27024;54.068;12.116;2022-09-30T07:16:04;13.60;;;9.07;;
583;SDS011;27024;54.068;12.116;2022-09-30T07:18:31;13.98;;;8.98;;
583;SDS011;27024;54.068;12.116;2022-09-30T07:21:17;12.90;;;8.32;;
583;SDS011;27024;54.068;12.116;2022-09-30T07:24:02;13.15;;;8.93;;
583;SDS011;27024;54.068;12.116;2022-09-30T07:26:32;12.35;;;7.93;;
583;SDS011;27024;54.068;12.116;2022-09-30T07:28:59;12.80;;;8.38;;
583;SDS011;27024;54.068;12.116;2022-09-30T07:31:26;12.32;;;7.95;;
583;SDS011;27024;54.068;12.116;2022-09-30T07:34:00;15.57;;;8.65;;
583;SDS011;27024;54.068;12.116;2022-09-30T07:36:33;12.40;;;7.63;;
583;SDS011;27024;54.068;12.116;2022-09-30T07:39:04;12.50;;;8.13;;
583;SDS011;27024;54.068;12.116;2022-09-30T07:41:34;12.88;;;8.25;;
583;SDS011;27024;54.068;12.116;2022-09-30T07:44:06;13.45;;;8.25;;
583;SDS011;27024;54.068;12.116;2022-09-30T07:46:35;12.95;;;8.32;;
583;SDS011;27024;54.068;12.116;2022-09-30T07:49:06;13.57;;;8.93;;
583;SDS011;27024;54.068;12.116;2022-09-30T07:51:38;14.40;;;8.82;;
583;SDS011;27024;54.068;12.116;2022-09-30T07:54:08;12.55;;;8.30;;
583;SDS011;27024;54.068;12.116;2022-09-30T07:56:38;14.27;;;9.18;;
583;SDS011;27024;54.068;12.116;2022-09-30T07:59:28;12.23;;;8.40;;
583;SDS011;27024;54.068;12.116;2022-09-30T08:01:56;13.35;;;8.98;;
583;SDS011;27024;54.068;12.116;2022-09-30T08:04:24;14.48;;;8.10;;
583;SDS011;27024;54.068;12.116;2022-09-30T08:06:53;14.20;;;8.68;;
583;SDS011;27024;54.068;12.116;2022-09-30T08:09:23;15.70;;;9.43;;
583;SDS011;27024;54.068;12.116;2022-09-30T08:11:52;13.77;;;8.57;;
583;SDS011;27024;54.068;12.116;2022-09-30T08:14:20;12.68;;;8.63;;
583;SDS011;27024;54.068;12.116;2022-09-30T08:16:49;13.80;;;8.88;;
583;SDS011;27024;54.068;12.116;2022-09-30T08:19:18;13.80;;;8.40;;
583;SDS011;27024;54.068;12.116;2022-09-30T08:21:46;13.73;;;9.35;;
583;SDS011;27024;54.068;12.116;2022-09-30T08:24:14;14.13;;;9.30;;
583;SDS011;27024;54.068;12.116;2022-09-30T08:26:41;13.65;;;8.52;;
583;SDS011;27024;54.068;12.116;2022-09-30T08:29:08;13.90;;;8.20;;
583;SDS011;27024;54.068;12.116;2022-09-30T08:31:46;12.18;;;8.52;;
583;SDS011;27024;54.068;12.116;2022-09-30T08:34:13;12.38;;;8.35;;
583;SDS011;27024;54.068;12.116;2022-09-30T08:36:40;13.30;;;8.57;;
583;SDS011;27024;54.068;12.116;2022-09-30T08:39:07;13.90;;;8.40;;
583;SDS011;27024;54.068;12.116;2022-09-30T08:48:01;12.40;;;7.85;;
583;SDS011;27024;54.068;12.116;2022-09-30T08:53:03;12.68;;;7.82;;
583;SDS011;27024;54.068;12.116;2022-09-30T08:55:39;12.32;;;7.82;;
583;SDS011;27024;54.068;12.116;2022-09-30T08:58:14;10.65;;;7.05;;
583;SDS011;27024;54.068;12.116;2022-09-30T09:00:43;11.60;;;7.32;;
583;SDS011;27024;54.068;12.116;2022-09-30T09:03:10;10.55;;;7.32;;
583;SDS011;27024;54.068;12.116;2022-09-30T09:20:46;9.02;;;7.15;;
583;SDS011;27024;54.068;12.116;2022-09-30T09:23:25;11.48;;;6.28;;
583;SDS011;27024;54.068;12.116;2022-09-30T09:25:56;7.82;;;5.45;;
583;SDS011;27024;54.068;12.116;2022-09-30T09:30:56;10.15;;;6.68;;
583;SDS011;27024;54.068;12.116;2022-09-30T09:33:27;9.15;;;5.80;;
583;SDS011;27024;54.068;12.116;2022-09-30T09:38:56;7.93;;;6.80;;
583;SDS011;27024;54.068;12.116;2022-09-30T09:41:42;8.05;;;5.40;;
583;SDS011;27024;54.068;12.116;2022-09-30T09:44:38;8.15;;;6.40;;
583;SDS011;27024;54.068;12.116;2022-09-30T09:47:19;6.85;;;5.03;;
583;SDS011;27024;54.068;12.116;2022-09-30T09:49:49;6.85;;;5.18;;
583;SDS011;27024;54.068;12.116;2022-09-30T09:55:12;4.70;;;2.83;;
583;SDS011;27024;54.068;12.116;2022-09-30T10:00:11;4.63;;;3.70;;
583;SDS011;27024;54.068;12.116;2022-09-30T10:03:11;4.45;;;3.25;;
583;SDS011;27024;54.068;12.116;2022-09-30T10:08:33;4.15;;;2.88;;
583;SDS011;27024;54.068;12.116;2022-09-30T10:11:05;4.35;;;3.42;;
583;SDS011;27024;54.068;12.116;2022-09-30T10:13:43;5.80;;;3.33;;
583;SDS011;27024;54.068;12.116;2022-09-30T10:18:58;5.80;;;3.72;;
583;SDS011;27024;54.068;12.116;2022-09-30T10:21:26;7.40;;;4.70;;
583;SDS011;27024;54.068;12.116;2022-09-30T10:23:54;6.57;;;4.53;;
583;SDS011;27024;54.068;12.116;2022-09-30T10:26:23;6.35;;;4.40;;
583;SDS011;27024;54.068;12.116;2022-09-30T10:28:58;4.78;;;3.90;;
583;SDS011;27024;54.068;12.116;2022-09-30T10:31:30;6.47;;;4.95;;
583;SDS011;27024;54.068;12.116;2022-09-30T10:36:43;3.20;;;1.40;;
583;SDS011;27024;54.068;12.116;2022-09-30T10:42:00;5.28;;;2.60;;
583;SDS011;27024;54.068;12.116;2022-09-30T10:44:28;3.50;;;2.50;;
583;SDS011;27024;54.068;12.116;2022-09-30T10:46:59;3.70;;;2.58;;
583;SDS011;27024;54.068;12.116;2022-09-30T10:49:34;3.72;;;2.42;;
583;SDS011;27024;54.068;12.116;2022-09-30T10:52:15;3.67;;;2.38;;
583;SDS011;27024;54.068;12.116;2022-09-30T10:54:47;2.92;;;1.73;;
583;SDS011;27024;54.068;12.116;2022-09-30T10:57:23;3.40;;;2.08;;
583;SDS011;27024;54.068;12.116;2022-09-30T11:00:05;2.03;;;1.20;;
583;SDS011;27024;54.068;12.116;2022-09-30T11:05:22;3.47;;;2.15;;
583;SDS011;27024;54.068;12.116;2022-09-30T11:08:18;2.83;;;1.75;;
583;SDS011;27024;54.068;12.116;2022-09-30T11:13:56;4.55;;;1.98;;
583;SDS011;27024;54.068;12.116;2022-09-30T11:19:27;3.28;;;1.70;;
583;SDS011;27024;54.068;12.116;2022-09-30T11:22:12;3.20;;;2.22;;
583;SDS011;27024;54.068;12.116;2022-09-30T11:24:53;3.08;;;2.35;;
583;SDS011;27024;54.068;12.116;2022-09-30T11:30:19;3.80;;;2.22;;
583;SDS011;27024;54.068;12.116;2022-09-30T11:35:50;3.30;;;2.40;;
583;SDS011;27024;54.068;12.116;2022-09-30T11:41:22;3.10;;;2.47;;
583;SDS011;27024;54.068;12.116;2022-09-30T11:44:07;3.08;;;2.40;;
583;SDS011;27024;54.068;12.116;2022-09-30T11:46:59;3.40;;;2.22;;
583;SDS011;27024;54.068;12.116;2022-09-30T11:58:16;2.08;;;1.77;;
583;SDS011;27024;54.068;12.116;2022-09-30T12:06:39;4.03;;;2.30;;
583;SDS011;27024;54.068;12.116;2022-09-30T12:17:47;3.85;;;2.40;;
583;SDS011;27024;54.068;12.116;2022-09-30T12:20:33;3.88;;;2.35;;
583;SDS011;27024;54.068;12.116;2022-09-30T12:23:08;3.85;;;1.92;;
583;SDS011;27024;54.068;12.116;2022-09-30T12:25:48;3.78;;;2.05;;
583;SDS011;27024;54.068;12.116;2022-09-30T12:34:18;2.67;;;1.42;;
583;SDS011;27024;54.068;12.116;2022-09-30T12:47:57;3.65;;;2.25;;
583;SDS011;27024;54.068;12.116;2022-09-30T12:50:26;5.15;;;2.13;;
583;SDS011;27024;54.068;12.116;2022-09-30T12:52:56;3.70;;;2.58;;
583;SDS011;27024;54.068;12.116;2022-09-30T12:55:25;4.45;;;3.08;;
583;SDS011;27024;54.068;12.116;2022-09-30T12:57:59;3.28;;;1.80;;
583;SDS011;27024;54.068;12.116;2022-09-30T13:00:28;4.35;;;2.45;;
583;SDS011;27024;54.068;12.116;2022-09-30T13:03:01;5.05;;;2.80;;
583;SDS011;27024;54.068;12.116;2022-09-30T13:10:29;2.70;;;1.70;;
583;SDS011;27024;54.068;12.116;2022-09-30T13:13:20;3.80;;;2.72;;
583;SDS011;27024;54.068;12.116;2022-09-30T13:15:49;4.18;;;2.60;;
583;SDS011;27024;54.068;12.116;2022-09-30T13:26:02;3.15;;;1.83;;
583;SDS011;27024;54.068;12.116;2022-09-30T13:28:36;4.32;;;2.45;;
583;SDS011;27024;54.068;12.116;2022-09-30T13:31:11;2.67;;;2.20;;
583;SDS011;27024;54.068;12.116;2022-09-30T13:34:03;3.38;;;2.13;;
583;SDS011;27024;54.068;12.116;2022-09-30T13:36:40;3.58;;;2.20;;
583;SDS011;27024;54.068;12.116;2022-09-30T13:48:47;3.00;;;2.28;;
583;SDS011;27024;54.068;12.116;2022-09-30T13:51:11;4.15;;;2.83;;
583;SDS011;27024;54.068;12.116;2022-09-30T13:53:47;3.40;;;2.42;;
583;SDS011;27024;54.068;12.116;2022-09-30T13:56:18;4.40;;;2.30;;
583;SDS011;27024;54.068;12.116;2022-09-30T14:01:53;6.30;;;3.50;;
583;SDS011;27024;54.068;12.116;2022-09-30T14:12:50;4.15;;;2.85;;
583;SDS011;27024;54.068;12.116;2022-09-30T14:15:57;5.20;;;3.05;;
583;SDS011;27024;54.068;12.116;2022-09-30T14:21:49;4.00;;;3.22;;
583;SDS011;27024;54.068;12.116;2022-09-30T14:24:26;5.13;;;2.65;;
583;SDS011;27024;54.068;12.116;2022-09-30T14:27:07;5.47;;;3.38;;
583;SDS011;27024;54.068;12.116;2022-09-30T14:32:24;5.40;;;3.90;;
583;SDS011;27024;54.068;12.116;2022-09-30T14:34:57;7.05;;;4.20;;
583;SDS011;27024;54.068;12.116;2022-09-30T14:37:26;6.38;;;3.72;;
583;SDS011;27024;54.068;12.116;2022-09-30T14:39:55;6.30;;;3.65;;
583;SDS011;27024;54.068;12.116;2022-09-30T14:42:41;6.07;;;4.05;;
583;SDS011;27024;54.068;12.116;2022-09-30T14:45:17;4.10;;;3.17;;
583;SDS011;27024;54.068;12.116;2022-09-30T14:47:47;4.80;;;3.40;;
583;SDS011;27024;54.068;12.116;2022-09-30T14:50:17;4.30;;;3.28;;
583;SDS011;27024;54.068;12.116;2022-09-30T14:52:48;5.05;;;3.35;;
583;SDS011;27024;54.068;12.116;2022-09-30T14:55:25;4.60;;;3.42;;
583;SDS011;27024;54.068;12.116;2022-09-30T15:00:55;5.03;;;3.42;;
583;SDS011;27024;54.068;12.116;2022-09-30T15:04:09;5.60;;;3.80;;
583;SDS011;27024;54.068;12.116;2022-09-30T15:06:41;5.85;;;3.15;;
583;SDS011;27024;54.068;12.116;2022-09-30T15:09:16;6.22;;;3.75;;
583;SDS011;27024;54.068;12.116;2022-09-30T15:11:53;4.15;;;2.53;;
583;SDS011;27024;54.068;12.116;2022-09-30T15:14:22;4.30;;;2.95;;
583;SDS011;27024;54.068;12.116;2022-09-30T15:16:50;5.15;;;3.08;;
583;SDS011;27024;54.068;12.116;2022-09-30T15:21:49;5.35;;;3.22;;
583;SDS011;27024;54.068;12.116;2022-09-30T15:24:18;3.50;;;2.63;;
583;SDS011;27024;54.068;12.116;2022-09-30T15:26:46;6.72;;;2.13;;
583;SDS011;27024;54.068;12.116;2022-09-30T15:29:15;4.88;;;3.60;;
583;SDS011;27024;54.068;12.116;2022-09-30T15:31:52;4.95;;;3.28;;
583;SDS011;27024;54.068;12.116;2022-09-30T15:34:25;6.38;;;3.00;;
583;SDS011;27024;54.068;12.116;2022-09-30T15:36:55;5.68;;;2.85;;
583;SDS011;27024;54.068;12.116;2022-09-30T15:39:26;5.90;;;4.20;;
583;SDS011;27024;54.068;12.116;2022-09-30T15:45:10;5.15;;;3.20;;
583;SDS011;27024;54.068;12.116;2022-09-30T15:48:06;4.03;;;2.42;;
583;SDS011;27024;54.068;12.116;2022-09-30T15:50:51;3.40;;;2.42;;
583;SDS011;27024;54.068;12.116;2022-09-30T15:53:22;4.13;;;2.60;;
583;SDS011;27024;54.068;12.116;2022-09-30T15:55:52;3.80;;;2.22;;
583;SDS011;27024;54.068;12.116;2022-09-30T16:06:26;4.55;;;2.58;;
583;SDS011;27024;54.068;12.116;2022-09-30T16:09:04;3.25;;;2.20;;
583;SDS011;27024;54.068;12.116;2022-09-30T16:11:35;4.63;;;2.97;;
583;SDS011;27024;54.068;12.116;2022-09-30T16:14:20;5.13;;;2.75;;
583;SDS011;27024;54.068;12.116;2022-09-30T16:16:57;4.20;;;2.65;;
583;SDS011;27024;54.068;12.116;2022-09-30T16:19:28;5.22;;;2.88;;
583;SDS011;27024;54.068;12.116;2022-09-30T16:22:00;5.72;;;2.95;;
583;SDS011;27024;54.068;12.116;2022-09-30T16:29:22;3.78;;;2.60;;
583;SDS011;27024;54.068;12.116;2022-09-30T16:31:54;5.57;;;2.92;;
583;SDS011;27024;54.068;12.116;2022-09-30T16:34:22;5.53;;;2.30;;
583;SDS011;27024;54.068;12.116;2022-09-30T16:36:51;5.22;;;2.95;;
583;SDS011;27024;54.068;12.116;2022-09-30T16:39:54;3.90;;;2.83;;
583;SDS011;27024;54.068;12.116;2022-09-30T16:42:30;5.60;;;3.60;;
583;SDS011;27024;54.068;12.116;2022-09-30T16:44:58;4.70;;;2.92;;
583;SDS011;27024;54.068;12.116;2022-09-30T16:47:26;5.60;;;2.85;;
583;SDS011;27024;54.068;12.116;2022-09-30T16:49:52;4.10;;;2.88;;
583;SDS011;27024;54.068;12.116;2022-09-30T16:52:19;6.15;;;3.17;;
583;SDS011;27024;54.068;12.116;2022-09-30T16:54:46;4.55;;;2.67;;
583;SDS011;27024;54.068;12.116;2022-09-30T16:57:13;4.30;;;2.72;;
583;SDS011;27024;54.068;12.116;2022-09-30T16:59:41;4.32;;;3.05;;
583;SDS011;27024;54.068;12.116;2022-09-30T17:02:11;3.83;;;2.90;;
583;SDS011;27024;54.068;12.116;2022-09-30T17:04:39;4.22;;;2.90;;
583;SDS011;27024;54.068;12.116;2022-09-30T17:07:09;5.93;;;3.25;;
583;SDS011;27024;54.068;12.116;2022-09-30T17:09:37;4.47;;;3.05;;
583;SDS011;27024;54.068;12.116;2022-09-30T17:12:04;7.00;;;3.30;;
583;SDS011;27024;54.068;12.116;2022-09-30T17:14:31;5.20;;;2.90;;
583;SDS011;27024;54.068;12.116;2022-09-30T17:16:58;5.68;;;3.33;;
583;SDS011;27024;54.068;12.116;2022-09-30T17:19:25;4.40;;;3.50;;
583;SDS011;27024;54.068;12.116;2022-09-30T17:21:55;5.78;;;3.42;;
583;SDS011;27024;54.068;12.116;2022-09-30T17:24:22;5.40;;;3.60;;
583;SDS011;27024;54.068;12.116;2022-09-30T17:26:48;5.30;;;4.10;;
583;SDS011;27024;54.068;12.116;2022-09-30T17:29:16;6.25;;;4.07;;
583;SDS011;27024;54.068;12.116;2022-09-30T17:31:57;8.27;;;4.20;;
583;SDS011;27024;54.068;12.116;2022-09-30T17:34:24;8.55;;;4.47;;
583;SDS011;27024;54.068;12.116;2022-09-30T17:36:53;7.25;;;4.20;;
583;SDS011;27024;54.068;12.116;2022-09-30T17:39:21;6.00;;;4.40;;
583;SDS011;27024;54.068;12.116;2022-09-30T17:41:48;7.53;;;4.68;;
583;SDS011;27024;54.068;12.116;2022-09-30T17:44:33;6.93;;;5.05;;
583;SDS011;27024;54.068;12.116;2022-09-30T17:47:00;6.90;;;4.45;;
583;SDS011;27024;54.068;12.116;2022-09-30T17:49:31;8.05;;;4.72;;
583;SDS011;27024;54.068;12.116;2022-09-30T17:52:01;8.60;;;4.85;;
583;SDS011;27024;54.068;12.116;2022-09-30T17:54:28;8.95;;;5.35;;
583;SDS011;27024;54.068;12.116;2022-09-30T17:56:57;8.45;;;5.53;;
583;SDS011;27024;54.068;12.116;2022-09-30T17:59:24;7.07;;;5.18;;
583;SDS011;27024;54.068;12.116;2022-09-30T18:01:52;10.52;;;5.93;;
583;SDS011;27024;54.068;12.116;2022-09-30T18:04:21;6.50;;;5.45;;
583;SDS011;27024;54.068;12.116;2022-09-30T18:06:55;7.03;;;5.65;;
583;SDS011;27024;54.068;12.116;2022-09-30T18:09:35;8.45;;;6.18;;
583;SDS011;27024;54.068;12.116;2022-09-30T18:12:08;9.48;;;5.93;;
583;SDS011;27024;54.068;12.116;2022-09-30T18:14:35;8.00;;;5.60;;
583;SDS011;27024;54.068;12.116;2022-09-30T18:17:04;9.43;;;6.22;;
583;SDS011;27024;54.068;12.116;2022-09-30T18:19:31;6.95;;;5.28;;
583;SDS011;27024;54.068;12.116;2022-09-30T18:22:01;8.18;;;5.43;;
583;SDS011;27024;54.068;12.116;2022-09-30T18:24:28;9.88;;;5.90;;
583;SDS011;27024;54.068;12.116;2022-09-30T18:27:13;8.32;;;5.25;;
583;SDS011;27024;54.068;12.116;2022-09-30T18:29:40;8.57;;;6.30;;
583;SDS011;27024;54.068;12.116;2022-09-30T18:32:07;9.85;;;6.60;;
583;SDS011;27024;54.068;12.116;2022-09-30T18:34:34;9.95;;;6.63;;
583;SDS011;27024;54.068;12.116;2022-09-30T18:37:01;11.55;;;7.22;;
583;SDS011;27024;54.068;12.116;2022-09-30T18:39:35;9.05;;;7.55;;
583;SDS011;27024;54.068;12.116;2022-09-30T18:42:05;10.98;;;8.35;;
583;SDS011;27024;54.068;12.116;2022-09-30T18:44:31;12.18;;;8.23;;
583;SDS011;27024;54.068;12.116;2022-09-30T18:47:03;11.48;;;8.07;;
583;SDS011;27024;54.068;12.116;2022-09-30T18:49:30;11.32;;;7.72;;
583;SDS011;27024;54.068;12.116;2022-09-30T18:51:57;12.88;;;9.15;;
583;SDS011;27024;54.068;12.116;2022-09-30T18:54:24;12.80;;;9.65;;
583;SDS011;27024;54.068;12.116;2022-09-30T18:56:51;13.07;;;9.57;;
583;SDS011;27024;54.068;12.116;2022-09-30T18:59:18;16.02;;;10.25;;
583;SDS011;27024;54.068;12.116;2022-09-30T19:01:49;15.85;;;9.43;;